sensor_id;sensor_type;location;lat;lon;timestamp;pressure;altitude;pressure_sealevel;temperature;humidity
47710;BME280;33473;51.640;5.892;2023-03-29T00:12:20;101600;;;12.3;47.0
47710;BME280;33473;51.640;5.892;2023-03-29T00:25:40;101600;;;12.4;47.0
47710;BME280;33473;51.640;5.892;2023-03-29T00:38:59;101500;;;12.3;47.0
47710;BME280;33473;51.640;5.892;2023-03-29T00:52:19;101500;;;12.3;47.0
47710;BME280;33473;51.640;5.892;2023-03-29T01:05:39;101500;;;12.4;47.0
47710;BME280;33473;51.640;5.892;2023-03-29T01:18:58;101500;;;12.6;47.0
47710;BME280;33473;51.640;5.892;2023-03-29T01:32:18;101500;;;12.6;47.0
47710;BME280;33473;51.640;5.892;2023-03-29T01:45:38;101500;;;12.7;47.0
47710;BME280;33473;51.640;5.892;2023-03-29T01:58:57;101500;;;12.5;46.0
47710;BME280;33473;51.640;5.892;2023-03-29T02:12:17;101400;;;12.7;48.0
47710;BME280;33473;51.640;5.892;2023-03-29T02:25:37;101400;;;12.9;48.0
47710;BME280;33473;51.640;5.892;2023-03-29T02:38:56;101400;;;13.0;49.0
47710;BME280;33473;51.640;5.892;2023-03-29T02:52:16;101400;;;13.0;49.0
47710;BME280;33473;51.640;5.892;2023-03-29T03:05:36;101400;;;13.1;49.0
47710;BME280;33473;51.640;5.892;2023-03-29T03:18:56;101400;;;13.1;49.0
47710;BME280;33473;51.640;5.892;2023-03-29T03:32:15;101400;;;13.0;50.0
47710;BME280;33473;51.640;5.892;2023-03-29T03:45:35;101300;;;13.0;50.0
47710;BME280;33473;51.640;5.892;2023-03-29T03:58:55;101400;;;13.0;50.0
47710;BME280;33473;51.640;5.892;2023-03-29T04:12:14;101400;;;13.1;50.0
47710;BME280;33473;51.640;5.892;2023-03-29T04:25:34;101400;;;13.1;49.0
47710;BME280;33473;51.640;5.892;2023-03-29T04:38:54;101300;;;13.2;49.0
47710;BME280;33473;51.640;5.892;2023-03-29T04:52:13;101300;;;13.0;49.0
47710;BME280;33473;51.640;5.892;2023-03-29T05:05:33;101300;;;13.2;47.0
47710;BME280;33473;51.640;5.892;2023-03-29T05:18:53;101300;;;13.4;47.0
47710;BME280;33473;51.640;5.892;2023-03-29T05:32:12;101300;;;13.5;47.0
47710;BME280;33473;51.640;5.892;2023-03-29T05:45:32;101300;;;13.5;47.0
47710;BME280;33473;51.640;5.892;2023-03-29T05:58:52;101300;;;13.7;47.0
47710;BME280;33473;51.640;5.892;2023-03-29T06:12:11;101300;;;13.9;46.0
47710;BME280;33473;51.640;5.892;2023-03-29T06:25:31;101300;;;14.1;46.0
47710;BME280;33473;51.640;5.892;2023-03-29T06:38:51;101300;;;14.2;46.0
47710;BME280;33473;51.640;5.892;2023-03-29T06:52:11;101300;;;14.5;45.0
47710;BME280;33473;51.640;5.892;2023-03-29T07:05:30;101300;;;14.7;45.0
47710;BME280;33473;51.640;5.892;2023-03-29T07:18:50;101300;;;15.2;45.0
47710;BME280;33473;51.640;5.892;2023-03-29T07:32:10;101300;;;15.5;45.0
47710;BME280;33473;51.640;5.892;2023-03-29T07:45:29;101400;;;15.8;44.0
47710;BME280;33473;51.640;5.892;2023-03-29T07:58:49;101400;;;16.1;44.0
47710;BME280;33473;51.640;5.892;2023-03-29T08:12:09;101400;;;16.3;44.0
47710;BME280;33473;51.640;5.892;2023-03-29T08:25:28;101400;;;16.4;46.0
47710;BME280;33473;51.640;5.892;2023-03-29T08:38:48;101400;;;16.5;48.0
47710;BME280;33473;51.640;5.892;2023-03-29T08:52:08;101400;;;16.7;48.0
47710;BME280;33473;51.640;5.892;2023-03-29T09:05:27;101400;;;17.0;49.0
47710;BME280;33473;51.640;5.892;2023-03-29T09:18:47;101300;;;17.3;49.0
47710;BME280;33473;51.640;5.892;2023-03-29T09:32:07;101300;;;17.6;48.0
47710;BME280;33473;51.640;5.892;2023-03-29T09:45:26;101300;;;18.0;46.0
47710;BME280;33473;51.640;5.892;2023-03-29T09:58:46;101300;;;18.2;46.0
47710;BME280;33473;51.640;5.892;2023-03-29T10:12:06;101300;;;18.1;47.0
47710;BME280;33473;51.640;5.892;2023-03-29T10:25:25;101300;;;18.2;49.0
47710;BME280;33473;51.640;5.892;2023-03-29T10:38:45;101300;;;17.7;49.0
47710;BME280;33473;51.640;5.892;2023-03-29T10:52:05;101300;;;17.8;51.0
47710;BME280;33473;51.640;5.892;2023-03-29T11:05:24;101300;;;18.1;52.0
47710;BME280;33473;51.640;5.892;2023-03-29T11:18:44;101300;;;18.5;52.0
47710;BME280;33473;51.640;5.892;2023-03-29T11:32:04;101300;;;19.3;49.0
47710;BME280;33473;51.640;5.892;2023-03-29T11:45:23;101300;;;20.1;48.0
47710;BME280;33473;51.640;5.892;2023-03-29T11:58:43;101300;;;20.2;47.0
47710;BME280;33473;51.640;5.892;2023-03-29T12:12:03;101300;;;20.3;46.0
47710;BME280;33473;51.640;5.892;2023-03-29T12:25:22;101200;;;20.7;45.0
47710;BME280;33473;51.640;5.892;2023-03-29T12:38:42;101200;;;20.9;43.0
47710;BME280;33473;51.640;5.892;2023-03-29T12:52:02;101200;;;21.0;44.0
47710;BME280;33473;51.640;5.892;2023-03-29T13:18:41;101200;;;21.1;43.0
47710;BME280;33473;51.640;5.892;2023-03-29T13:32:01;101200;;;22.0;40.0
47710;BME280;33473;51.640;5.892;2023-03-29T13:45:20;101100;;;22.5;39.0
47710;BME280;33473;51.640;5.892;2023-03-29T13:58:40;101100;;;21.8;40.0
47710;BME280;33473;51.640;5.892;2023-03-29T14:12:00;101100;;;21.2;41.0
47710;BME280;33473;51.640;5.892;2023-03-29T14:25:19;101100;;;22.2;39.0
47710;BME280;33473;51.640;5.892;2023-03-29T14:38:39;101100;;;22.3;39.0
47710;BME280;33473;51.640;5.892;2023-03-29T14:51:59;101100;;;22.4;39.0
47710;BME280;33473;51.640;5.892;2023-03-29T15:05:19;101100;;;22.6;39.0
47710;BME280;33473;51.640;5.892;2023-03-29T15:18:38;101000;;;22.6;39.0
47710;BME280;33473;51.640;5.892;2023-03-29T15:31:58;101000;;;22.7;39.0
47710;BME280;33473;51.640;5.892;2023-03-29T15:45:18;101000;;;22.8;39.0
47710;BME280;33473;51.640;5.892;2023-03-29T15:58:37;101000;;;22.6;40.0
47710;BME280;33473;51.640;5.892;2023-03-29T16:11:57;100900;;;22.5;41.0
47710;BME280;33473;51.640;5.892;2023-03-29T16:25:17;100900;;;22.3;41.0
47710;BME280;33473;51.640;5.892;2023-03-29T16:38:36;100900;;;22.2;42.0
47710;BME280;33473;51.640;5.892;2023-03-29T16:51:56;100900;;;22.0;42.0
47710;BME280;33473;51.640;5.892;2023-03-29T17:05:16;100900;;;21.9;43.0
47710;BME280;33473;51.640;5.892;2023-03-29T17:18:35;100900;;;21.6;43.0
47710;BME280;33473;51.640;5.892;2023-03-29T17:31:55;100800;;;21.3;44.0
47710;BME280;33473;51.640;5.892;2023-03-29T17:45:15;100800;;;21.0;45.0
47710;BME280;33473;51.640;5.892;2023-03-29T17:58:34;100800;;;20.7;46.0
47710;BME280;33473;51.640;5.892;2023-03-29T18:11:54;100800;;;20.4;47.0
47710;BME280;33473;51.640;5.892;2023-03-29T18:25:14;100800;;;20.2;48.0
47710;BME280;33473;51.640;5.892;2023-03-29T18:38:33;100800;;;20.1;49.0
47710;BME280;33473;51.640;5.892;2023-03-29T18:51:53;100800;;;19.8;49.0
47710;BME280;33473;51.640;5.892;2023-03-29T19:05:13;100800;;;19.7;50.0
47710;BME280;33473;51.640;5.892;2023-03-29T19:18:33;100800;;;19.6;50.0
47710;BME280;33473;51.640;5.892;2023-03-29T19:31:52;100800;;;19.4;51.0
47710;BME280;33473;51.640;5.892;2023-03-29T19:45:12;100800;;;19.2;51.0
47710;BME280;33473;51.640;5.892;2023-03-29T19:58:32;100700;;;19.2;51.0
47710;BME280;33473;51.640;5.892;2023-03-29T20:11:51;100700;;;19.1;51.0
47710;BME280;33473;51.640;5.892;2023-03-29T20:25:11;100700;;;19.1;51.0
47710;BME280;33473;51.640;5.892;2023-03-29T20:38:31;100700;;;19.1;50.0
47710;BME280;33473;51.640;5.892;2023-03-29T20:51:50;100700;;;19.0;50.0
47710;BME280;33473;51.640;5.892;2023-03-29T21:05:10;100600;;;19.0;50.0
47710;BME280;33473;51.640;5.892;2023-03-29T21:18:30;100600;;;18.9;50.0
47710;BME280;33473;51.640;5.892;2023-03-29T21:31:49;100600;;;18.7;50.0
47710;BME280;33473;51.640;5.892;2023-03-29T21:45:09;100600;;;18.7;50.0
47710;BME280;33473;51.640;5.892;2023-03-29T21:58:29;100600;;;18.6;50.0
47710;BME280;33473;51.640;5.892;2023-03-29T22:11:49;100600;;;18.6;49.0
47710;BME280;33473;51.640;5.892;2023-03-29T22:25:08;100600;;;18.6;48.0
47710;BME280;33473;51.640;5.892;2023-03-29T22:38:28;100500;;;18.5;48.0
47710;BME280;33473;51.640;5.892;2023-03-29T22:51:48;100500;;;18.5;47.0
47710;BME280;33473;51.640;5.892;2023-03-29T23:05:07;100500;;;18.3;47.0
47710;BME280;33473;51.640;5.892;2023-03-29T23:18:27;100500;;;18.3;47.0
47710;BME280;33473;51.640;5.892;2023-03-29T23:31:47;100500;;;18.3;47.0
47710;BME280;33473;51.640;5.892;2023-03-29T23:45:06;100500;;;18.3;46.0
47710;BME280;33473;51.640;5.892;2023-03-29T23:58:26;100500;;;18.3;46.0
